Airfield :
LOGIN :

Register | Disclaimer

   EN    FR    IT 

 










Legend :    VFR   Marginal VFR   IFR   Intensive IFR   Very Intensive IFR
Visi :
Ceiling :
>= 8 km
>= 3000ft
5 to 8 km
1000 to 3000 ft
1500m to 5 km
500 to 1000 ft
800 to 1500m
200 to 500 ft
< 800m
< 200 ft
Symbols :   Thunderstorms  Fog  Heavy snow  Heavy precipitations  Wind > 20 kt
SIGMETs :     Misc.  Thunderstorms  Icing  Turbulence  Mountain Waves  Volcanic Ashes






- Airport Elevation : 2595 ft
- IATA code : SLM


LESA - Salamanca Matacan

CURRENT METAR :
  • 040000Z AUTO 05008KT 020V080 7000 NCD 20/13 Q1020

EXPIRED METARs :
  • 031530Z 29006KT 240V330 9999 FEW070TCU 30/11 Q1018
  • 032330Z AUTO 08009KT 8000 NCD 20/14 Q1019
  • 032300Z AUTO 09011KT 7000 NCD 20/14 Q1019
  • 032230Z AUTO 08008KT 8000 NSC 20/14 Q1020
  • 032200Z AUTO 00000KT 8000 NCD 19/12 Q1019
  • 032130Z AUTO VRB02KT 8000 NCD 19/13 Q1019

TAF TAF LESA
Valid from the 03 at 21:00 until the 04 at 21:00 UTC


032000Z 0321/0421 04006KT CAVOK TX34/0416Z TN12/0406Z



MET'MAP, your aeronautical weather chart ! - Copyright ORBIFLY December 2007 - Disclaimer

ORBIFLY MET'MAP TEAM :

Programming & Development : Alexandra Zaïnal
Original concept : Baudouin d'Aumeries
Technical & hardware support : Manuel Goepfert
Assistance : Marc-Olivier Méhu




SOURCES & CREDITS :

   NOAA